M/T Goviken — 9HA2718 — position and weather

sailwx.info

Track history (hours):
 
Tides and Currents Weather Stations Pressure Air Temp Water Temp Dewpoint Dewpoint Depression Visibility Wind Speed Wind Dir Waves Ship Positions

M/T Goviken

Last reported at 2014-Oct-19 11:24 UTC. Time now 2014-Oct-22 12:15 UTC.
Position N 38°40' W 009°56'.

Length 88 m; draft 6.5 m.

Type: Ship (hazmat cat C). MMSI: 215389000.

Date/timePositionNaut miles runAvg speedWind from/ knotsBaromVisibWave heightAir tempDewpointWater temp
2014-Oct-19 11:24N 38°40' W 009°56'8 9.7
2014-Oct-19 10:32N 38°34' W 009°50'10 9.8
2014-Oct-19 09:33N 38°28' W 009°40'9 9.3
2014-Oct-19 08:33N 38°22' W 009°31'9 9.2
2014-Oct-19 07:33N 38°16' W 009°22'9 9.2
2014-Oct-19 06:33N 38°10' W 009°13'9 8.8
2014-Oct-19 05:33N 38°05' W 009°04'10 9.6
2014-Oct-19 04:33N 37°58' W 008°56'2 2.0
2014-Oct-19 03:33N 37°57' W 008°53'0 0.0
2014-Oct-19 02:33N 37°57' W 008°53'0 0.0
2014-Oct-19 01:33N 37°57' W 008°53'0 0.0
2014-Oct-19 00:33N 37°57' W 008°53'0 0.0
2014-Oct-18 23:33N 37°57' W 008°53'0 0.0
2014-Oct-18 22:33N 37°57' W 008°53'0 0.0
2014-Oct-18 21:33N 37°57' W 008°53'0 0.0
2014-Oct-18 20:33N 37°57' W 008°53'0 0.0
2014-Oct-18 19:30N 37°57' W 008°53'0 0.0
2014-Oct-18 18:33N 37°57' W 008°53'0 0.0
2014-Oct-18 17:33N 37°57' W 008°53'0 0.0
2014-Oct-18 16:33N 37°57' W 008°53'0 0.0
2014-Oct-18 15:33N 37°57' W 008°53'0 0.0
2014-Oct-18 14:30N 37°57' W 008°53'0 0.0
2014-Oct-18 13:33N 37°57' W 008°53'0 0.0
2014-Oct-18 12:33N 37°57' W 008°53'0 0.0
2014-Oct-18 11:33N 37°57' W 008°53'0 0.0
2014-Oct-18 10:33N 37°57' W 008°53'0 0.0
2014-Oct-18 09:33N 37°57' W 008°53'0 0.0
2014-Oct-18 08:33N 37°57' W 008°53'0 0.0
2014-Oct-18 07:33N 37°57' W 008°53'0 0.0
2014-Oct-18 06:33N 37°57' W 008°53'0 0.0
2014-Oct-18 05:33N 37°57' W 008°53'0 0.0
2014-Oct-18 04:33N 37°57' W 008°53'0 0.0
2014-Oct-18 03:33N 37°57' W 008°53'0 0.0
2014-Oct-18 02:33N 37°57' W 008°53'0 0.0
2014-Oct-18 01:33N 37°57' W 008°53'0 0.0
2014-Oct-18 00:33N 37°57' W 008°53'0 0.0
2014-Oct-17 23:33N 37°57' W 008°53'0 0.0
2014-Oct-17 22:33N 37°57' W 008°53'0 0.0
2014-Oct-17 21:27N 37°57' W 008°53'1 1.5
2014-Oct-17 20:33N 37°56' W 008°53'1 1.3
2014-Oct-17 19:31N 37°55' W 008°52'0 0.1
2014-Oct-17 18:31N 37°55' W 008°52'0 0.0
2014-Oct-17 17:31N 37°55' W 008°52'0 0.0
2014-Oct-17 16:31N 37°55' W 008°52'0 0.0
2014-Oct-17 15:31N 37°55' W 008°52'0 0.0
2014-Oct-17 14:28N 37°55' W 008°52'0 0.0
2014-Oct-17 13:31N 37°55' W 008°52'0 0.0
2014-Oct-17 12:31N 37°55' W 008°52'0 0.0
2014-Oct-17 11:31N 37°55' W 008°52'0 0.0
2014-Oct-17 10:31N 37°55' W 008°52'0 0.0
2014-Oct-17 09:31N 37°55' W 008°52'0 0.0
2014-Oct-17 08:31N 37°55' W 008°52'0 0.0
2014-Oct-17 07:31N 37°55' W 008°52'0 0.0
2014-Oct-17 06:31N 37°55' W 008°52'0 0.0
2014-Oct-17 05:31N 37°55' W 008°52'0 0.0
2014-Oct-17 04:31N 37°55' W 008°52'0 0.0
2014-Oct-17 03:31N 37°55' W 008°52'0 0.0
2014-Oct-17 02:31N 37°55' W 008°52'0 0.0
2014-Oct-17 01:31N 37°55' W 008°52'0 0.0
2014-Oct-17 00:31N 37°55' W 008°52'0 0.0
2014-Oct-16 23:31N 37°55' W 008°52'0 0.0
2014-Oct-16 22:31N 37°55' W 008°52'0 0.0
2014-Oct-16 21:31N 37°55' W 008°52'0 0.0
2014-Oct-16 20:31N 37°55' W 008°52'0 0.0
2014-Oct-16 19:31N 37°55' W 008°52'0 0.0
2014-Oct-16 18:31N 37°55' W 008°52'0 0.0
2014-Oct-16 17:31N 37°55' W 008°52'0 0.0
2014-Oct-16 16:31N 37°55' W 008°52'0 0.0
2014-Oct-16 15:31N 37°55' W 008°52'0 0.0
2014-Oct-16 14:31N 37°55' W 008°52'0 0.0
2014-Oct-16 13:31N 37°55' W 008°52'0 0.0
2014-Oct-16 12:31N 37°55' W 008°52'0 0.0
2014-Oct-16 11:31N 37°55' W 008°52'0 0.0
2014-Oct-16 10:31N 37°55' W 008°52'0 0.0
2014-Oct-16 09:28N 37°55' W 008°52'0 0.0
2014-Oct-16 08:31N 37°55' W 008°52'0 0.0
2014-Oct-16 07:31N 37°55' W 008°52'0 0.0
2014-Oct-16 06:31N 37°55' W 008°52'0 0.0
2014-Oct-16 05:28N 37°55' W 008°52'0 0.0
2014-Oct-16 04:31N 37°55' W 008°52'0 0.0
2014-Oct-16 03:31N 37°55' W 008°52'0 0.0
2014-Oct-16 02:31N 37°55' W 008°52'0 0.0
2014-Oct-16 01:31N 37°55' W 008°52'0 0.0
2014-Oct-16 00:31N 37°55' W 008°52'0 0.0
2014-Oct-15 23:31N 37°55' W 008°52'0 0.0
2014-Oct-15 22:31N 37°55' W 008°52'0 0.0
2014-Oct-15 21:31N 37°55' W 008°52'0 0.0
2014-Oct-15 20:31N 37°55' W 008°52'0 0.0
2014-Oct-15 19:31N 37°55' W 008°52'0 0.0
2014-Oct-15 18:31N 37°55' W 008°52'0 0.0
2014-Oct-15 17:31N 37°55' W 008°52'0 0.0
2014-Oct-15 16:31N 37°55' W 008°52'0 0.0
2014-Oct-15 15:31N 37°55' W 008°52'0 0.0
2014-Oct-15 14:31N 37°55' W 008°52'0 0.0
2014-Oct-15 13:31N 37°55' W 008°52'0 0.0
2014-Oct-15 12:31N 37°55' W 008°52'0 0.0
2014-Oct-15 11:31N 37°55' W 008°52'0 0.0
2014-Oct-15 10:31N 37°55' W 008°52'0 0.0
2014-Oct-15 09:28N 37°55' W 008°52'0 0.0
2014-Oct-15 08:31N 37°55' W 008°52'0 0.0
2014-Oct-15 07:31N 37°55' W 008°52'0 0.0
2014-Oct-15 06:31N 37°55' W 008°52'0 0.0
2014-Oct-15 05:31N 37°55' W 008°52'0 0.0
2014-Oct-15 04:31N 37°55' W 008°52'0 0.0
2014-Oct-15 03:31N 37°55' W 008°52'0 0.0
2014-Oct-15 02:31N 37°55' W 008°52'0 0.0
2014-Oct-15 01:31N 37°55' W 008°52'0 0.0
2014-Oct-15 00:31N 37°55' W 008°52'0 0.0
2014-Oct-14 23:31N 37°55' W 008°52'0 0.0
2014-Oct-14 22:31N 37°55' W 008°52'0 0.0
2014-Oct-14 21:31N 37°55' W 008°52'0 0.0
2014-Oct-14 20:31N 37°55' W 008°52'0 0.0
2014-Oct-14 19:31N 37°55' W 008°52'0 0.0
2014-Oct-14 18:31N 37°55' W 008°52'0 0.0
2014-Oct-14 17:31N 37°55' W 008°52'0 0.0
2014-Oct-14 16:31N 37°55' W 008°52'0 0.0
2014-Oct-14 15:31N 37°55' W 008°52'0 0.0
2014-Oct-14 14:31N 37°55' W 008°52'0 0.0
2014-Oct-14 13:31N 37°55' W 008°52'0 0.0
2014-Oct-14 12:31N 37°55' W 008°52'0 0.0
2014-Oct-14 11:31N 37°55' W 008°52'0 0.0
2014-Oct-14 10:31N 37°55' W 008°52'0 0.0
2014-Oct-14 09:31N 37°55' W 008°52'0 0.0
2014-Oct-14 08:31N 37°55' W 008°52'0 0.0
2014-Oct-14 07:31N 37°55' W 008°52'0 0.0
2014-Oct-14 06:31N 37°55' W 008°52'0 0.0
2014-Oct-14 05:31N 37°55' W 008°52'0 0.0
2014-Oct-14 04:31N 37°55' W 008°52'0 0.0
2014-Oct-14 03:31N 37°55' W 008°52'0 0.0
2014-Oct-14 02:31N 37°55' W 008°52'0 0.0
2014-Oct-14 01:31N 37°55' W 008°52'0 0.0
2014-Oct-14 00:31N 37°55' W 008°52'0 0.0
2014-Oct-13 23:31N 37°54' W 008°52'0 0.0
2014-Oct-13 22:31N 37°54' W 008°52'0 0.1
2014-Oct-13 21:31N 37°55' W 008°52'0 0.0
2014-Oct-13 20:31N 37°55' W 008°52'0 0.0
2014-Oct-13 19:31N 37°55' W 008°52'0 0.0
2014-Oct-13 18:31N 37°55' W 008°52'0 0.0
2014-Oct-13 17:31N 37°55' W 008°52'0 0.0
2014-Oct-13 16:31N 37°55' W 008°52'0 0.1
2014-Oct-13 15:31N 37°55' W 008°52'0 0.0
2014-Oct-13 14:31N 37°55' W 008°52'0 0.0
2014-Oct-13 13:31N 37°55' W 008°52'0 0.0
2014-Oct-13 12:31N 37°55' W 008°52'0 0.0
2014-Oct-13 11:31N 37°55' W 008°52'0 0.0
2014-Oct-13 10:31N 37°55' W 008°52'0 0.0
2014-Oct-13 09:31N 37°55' W 008°52'0 0.1
2014-Oct-13 08:31N 37°55' W 008°52'7 7.3
2014-Oct-13 07:33N 37°60' W 008°58'1010.0
2014-Oct-13 06:33N 38°06' W 009°08'6 5.6
2014-Oct-13 05:33N 38°09' W 009°14'6 5.6
2014-Oct-13 04:33N 38°11' W 009°20'5 5.6
2014-Oct-13 03:33N 38°14' W 009°27'6 5.7
2014-Oct-13 02:32N 38°17' W 009°33'  
Track history (hours):
 
Tides and Currents Weather Stations Pressure Air Temp Water Temp Dewpoint Dewpoint Depression Visibility Wind Speed Wind Dir Waves Ship Positions

M/T Goviken

Last reported at 2014-Oct-19 11:24 UTC. Time now 2014-Oct-22 12:15 UTC.
Position N 38°40' W 009°56'.

Length 88 m; draft 6.5 m.

Type: Ship (hazmat cat C). MMSI: 215389000.

Date/timePositionNaut miles runAvg speedWind from/ knotsBaromVisibWave heightAir tempDewpointWater temp
2014-Oct-19 11:24N 38°40' W 009°56'8 9.7
2014-Oct-19 10:32N 38°34' W 009°50'10 9.8
2014-Oct-19 09:33N 38°28' W 009°40'9 9.3
2014-Oct-19 08:33N 38°22' W 009°31'9 9.2
2014-Oct-19 07:33N 38°16' W 009°22'9 9.2
2014-Oct-19 06:33N 38°10' W 009°13'9 8.8
2014-Oct-19 05:33N 38°05' W 009°04'10 9.6
2014-Oct-19 04:33N 37°58' W 008°56'2 2.0
2014-Oct-19 03:33N 37°57' W 008°53'0 0.0
2014-Oct-19 02:33N 37°57' W 008°53'0 0.0
2014-Oct-19 01:33N 37°57' W 008°53'0 0.0
2014-Oct-19 00:33N 37°57' W 008°53'0 0.0
2014-Oct-18 23:33N 37°57' W 008°53'0 0.0
2014-Oct-18 22:33N 37°57' W 008°53'0 0.0
2014-Oct-18 21:33N 37°57' W 008°53'0 0.0
2014-Oct-18 20:33N 37°57' W 008°53'0 0.0
2014-Oct-18 19:30N 37°57' W 008°53'0 0.0
2014-Oct-18 18:33N 37°57' W 008°53'0 0.0
2014-Oct-18 17:33N 37°57' W 008°53'0 0.0
2014-Oct-18 16:33N 37°57' W 008°53'0 0.0
2014-Oct-18 15:33N 37°57' W 008°53'0 0.0
2014-Oct-18 14:30N 37°57' W 008°53'0 0.0
2014-Oct-18 13:33N 37°57' W 008°53'0 0.0
2014-Oct-18 12:33N 37°57' W 008°53'0 0.0
2014-Oct-18 11:33N 37°57' W 008°53'0 0.0
2014-Oct-18 10:33N 37°57' W 008°53'0 0.0
2014-Oct-18 09:33N 37°57' W 008°53'0 0.0
2014-Oct-18 08:33N 37°57' W 008°53'0 0.0
2014-Oct-18 07:33N 37°57' W 008°53'0 0.0
2014-Oct-18 06:33N 37°57' W 008°53'0 0.0
2014-Oct-18 05:33N 37°57' W 008°53'0 0.0
2014-Oct-18 04:33N 37°57' W 008°53'0 0.0
2014-Oct-18 03:33N 37°57' W 008°53'0 0.0
2014-Oct-18 02:33N 37°57' W 008°53'0 0.0
2014-Oct-18 01:33N 37°57' W 008°53'0 0.0
2014-Oct-18 00:33N 37°57' W 008°53'0 0.0
2014-Oct-17 23:33N 37°57' W 008°53'0 0.0
2014-Oct-17 22:33N 37°57' W 008°53'0 0.0
2014-Oct-17 21:27N 37°57' W 008°53'1 1.5
2014-Oct-17 20:33N 37°56' W 008°53'1 1.3
2014-Oct-17 19:31N 37°55' W 008°52'0 0.1
2014-Oct-17 18:31N 37°55' W 008°52'0 0.0
2014-Oct-17 17:31N 37°55' W 008°52'0 0.0
2014-Oct-17 16:31N 37°55' W 008°52'0 0.0
2014-Oct-17 15:31N 37°55' W 008°52'0 0.0
2014-Oct-17 14:28N 37°55' W 008°52'0 0.0
2014-Oct-17 13:31N 37°55' W 008°52'0 0.0
2014-Oct-17 12:31N 37°55' W 008°52'0 0.0
2014-Oct-17 11:31N 37°55' W 008°52'0 0.0
2014-Oct-17 10:31N 37°55' W 008°52'0 0.0
2014-Oct-17 09:31N 37°55' W 008°52'0 0.0
2014-Oct-17 08:31N 37°55' W 008°52'0 0.0
2014-Oct-17 07:31N 37°55' W 008°52'0 0.0
2014-Oct-17 06:31N 37°55' W 008°52'0 0.0
2014-Oct-17 05:31N 37°55' W 008°52'0 0.0
2014-Oct-17 04:31N 37°55' W 008°52'0 0.0
2014-Oct-17 03:31N 37°55' W 008°52'0 0.0
2014-Oct-17 02:31N 37°55' W 008°52'0 0.0
2014-Oct-17 01:31N 37°55' W 008°52'0 0.0
2014-Oct-17 00:31N 37°55' W 008°52'0 0.0
2014-Oct-16 23:31N 37°55' W 008°52'0 0.0
2014-Oct-16 22:31N 37°55' W 008°52'0 0.0
2014-Oct-16 21:31N 37°55' W 008°52'0 0.0
2014-Oct-16 20:31N 37°55' W 008°52'0 0.0
2014-Oct-16 19:31N 37°55' W 008°52'0 0.0
2014-Oct-16 18:31N 37°55' W 008°52'0 0.0
2014-Oct-16 17:31N 37°55' W 008°52'0 0.0
2014-Oct-16 16:31N 37°55' W 008°52'0 0.0
2014-Oct-16 15:31N 37°55' W 008°52'0 0.0
2014-Oct-16 14:31N 37°55' W 008°52'0 0.0
2014-Oct-16 13:31N 37°55' W 008°52'0 0.0
2014-Oct-16 12:31N 37°55' W 008°52'0 0.0
2014-Oct-16 11:31N 37°55' W 008°52'0 0.0
2014-Oct-16 10:31N 37°55' W 008°52'0 0.0
2014-Oct-16 09:28N 37°55' W 008°52'0 0.0
2014-Oct-16 08:31N 37°55' W 008°52'0 0.0
2014-Oct-16 07:31N 37°55' W 008°52'0 0.0
2014-Oct-16 06:31N 37°55' W 008°52'0 0.0
2014-Oct-16 05:28N 37°55' W 008°52'0 0.0
2014-Oct-16 04:31N 37°55' W 008°52'0 0.0
2014-Oct-16 03:31N 37°55' W 008°52'0 0.0
2014-Oct-16 02:31N 37°55' W 008°52'0 0.0
2014-Oct-16 01:31N 37°55' W 008°52'0 0.0
2014-Oct-16 00:31N 37°55' W 008°52'0 0.0
2014-Oct-15 23:31N 37°55' W 008°52'0 0.0
2014-Oct-15 22:31N 37°55' W 008°52'0 0.0
2014-Oct-15 21:31N 37°55' W 008°52'0 0.0
2014-Oct-15 20:31N 37°55' W 008°52'0 0.0
2014-Oct-15 19:31N 37°55' W 008°52'0 0.0
2014-Oct-15 18:31N 37°55' W 008°52'0 0.0
2014-Oct-15 17:31N 37°55' W 008°52'0 0.0
2014-Oct-15 16:31N 37°55' W 008°52'0 0.0
2014-Oct-15 15:31N 37°55' W 008°52'0 0.0
2014-Oct-15 14:31N 37°55' W 008°52'0 0.0
2014-Oct-15 13:31N 37°55' W 008°52'0 0.0
2014-Oct-15 12:31N 37°55' W 008°52'0 0.0
2014-Oct-15 11:31N 37°55' W 008°52'0 0.0
2014-Oct-15 10:31N 37°55' W 008°52'0 0.0
2014-Oct-15 09:28N 37°55' W 008°52'0 0.0
2014-Oct-15 08:31N 37°55' W 008°52'0 0.0
2014-Oct-15 07:31N 37°55' W 008°52'0 0.0
2014-Oct-15 06:31N 37°55' W 008°52'0 0.0
2014-Oct-15 05:31N 37°55' W 008°52'0 0.0
2014-Oct-15 04:31N 37°55' W 008°52'0 0.0
2014-Oct-15 03:31N 37°55' W 008°52'0 0.0
2014-Oct-15 02:31N 37°55' W 008°52'0 0.0
2014-Oct-15 01:31N 37°55' W 008°52'0 0.0
2014-Oct-15 00:31N 37°55' W 008°52'0 0.0
2014-Oct-14 23:31N 37°55' W 008°52'0 0.0
2014-Oct-14 22:31N 37°55' W 008°52'0 0.0
2014-Oct-14 21:31N 37°55' W 008°52'0 0.0
2014-Oct-14 20:31N 37°55' W 008°52'0 0.0
2014-Oct-14 19:31N 37°55' W 008°52'0 0.0
2014-Oct-14 18:31N 37°55' W 008°52'0 0.0
2014-Oct-14 17:31N 37°55' W 008°52'0 0.0
2014-Oct-14 16:31N 37°55' W 008°52'0 0.0
2014-Oct-14 15:31N 37°55' W 008°52'0 0.0
2014-Oct-14 14:31N 37°55' W 008°52'0 0.0
2014-Oct-14 13:31N 37°55' W 008°52'0 0.0
2014-Oct-14 12:31N 37°55' W 008°52'0 0.0
2014-Oct-14 11:31N 37°55' W 008°52'0 0.0
2014-Oct-14 10:31N 37°55' W 008°52'0 0.0
2014-Oct-14 09:31N 37°55' W 008°52'0 0.0
2014-Oct-14 08:31N 37°55' W 008°52'0 0.0
2014-Oct-14 07:31N 37°55' W 008°52'0 0.0
2014-Oct-14 06:31N 37°55' W 008°52'0 0.0
2014-Oct-14 05:31N 37°55' W 008°52'0 0.0
2014-Oct-14 04:31N 37°55' W 008°52'0 0.0
2014-Oct-14 03:31N 37°55' W 008°52'0 0.0
2014-Oct-14 02:31N 37°55' W 008°52'0 0.0
2014-Oct-14 01:31N 37°55' W 008°52'0 0.0
2014-Oct-14 00:31N 37°55' W 008°52'0 0.0
2014-Oct-13 23:31N 37°54' W 008°52'0 0.0
2014-Oct-13 22:31N 37°54' W 008°52'0 0.1
2014-Oct-13 21:31N 37°55' W 008°52'0 0.0
2014-Oct-13 20:31N 37°55' W 008°52'0 0.0
2014-Oct-13 19:31N 37°55' W 008°52'0 0.0
2014-Oct-13 18:31N 37°55' W 008°52'0 0.0
2014-Oct-13 17:31N 37°55' W 008°52'0 0.0
2014-Oct-13 16:31N 37°55' W 008°52'0 0.1
2014-Oct-13 15:31N 37°55' W 008°52'0 0.0
2014-Oct-13 14:31N 37°55' W 008°52'0 0.0
2014-Oct-13 13:31N 37°55' W 008°52'0 0.0
2014-Oct-13 12:31N 37°55' W 008°52'0 0.0
2014-Oct-13 11:31N 37°55' W 008°52'0 0.0
2014-Oct-13 10:31N 37°55' W 008°52'0 0.0
2014-Oct-13 09:31N 37°55' W 008°52'0 0.1
2014-Oct-13 08:31N 37°55' W 008°52'7 7.3
2014-Oct-13 07:33N 37°60' W 008°58'1010.0
2014-Oct-13 06:33N 38°06' W 009°08'6 5.6
2014-Oct-13 05:33N 38°09' W 009°14'6 5.6
2014-Oct-13 04:33N 38°11' W 009°20'5 5.6
2014-Oct-13 03:33N 38°14' W 009°27'6 5.7
2014-Oct-13 02:32N 38°17' W 009°33'  

Dump ship's entire track history